sensor_id;sensor_type;location;lat;lon;timestamp;pressure;altitude;pressure_sealevel;temperature
61189;BMP280;47054;39.716;2.904;2022-10-04T00:04:43;100613.31;;;25.94
61189;BMP280;47054;39.716;2.904;2022-10-04T00:07:30;100609.81;;;25.93
61189;BMP280;47054;39.716;2.904;2022-10-04T00:13:04;100610.59;;;25.94
61189;BMP280;47054;39.716;2.904;2022-10-04T00:15:49;100609.06;;;25.93
61189;BMP280;47054;39.716;2.904;2022-10-04T00:18:38;100609.81;;;25.93
61189;BMP280;47054;39.716;2.904;2022-10-04T00:21:23;100616.03;;;25.94
61189;BMP280;47054;39.716;2.904;2022-10-04T00:24:29;100617.97;;;25.93
61189;BMP280;47054;39.716;2.904;2022-10-04T00:27:21;100623.41;;;25.93
61189;BMP280;47054;39.716;2.904;2022-10-04T00:33:36;100625.34;;;25.93
61189;BMP280;47054;39.716;2.904;2022-10-04T00:44:59;100614.50;;;25.93
61189;BMP280;47054;39.716;2.904;2022-10-04T00:50:42;100623.41;;;25.93
61189;BMP280;47054;39.716;2.904;2022-10-04T00:53:41;100617.22;;;25.93
61189;BMP280;47054;39.716;2.904;2022-10-04T01:07:45;100598.19;;;25.93
61189;BMP280;47054;39.716;2.904;2022-10-04T01:10:30;100605.56;;;25.92
61189;BMP280;47054;39.716;2.904;2022-10-04T01:13:24;100603.63;;;25.93
61189;BMP280;47054;39.716;2.904;2022-10-04T01:22:29;100602.09;;;25.92
61189;BMP280;47054;39.716;2.904;2022-10-04T01:25:36;100607.53;;;25.92
61189;BMP280;47054;39.716;2.904;2022-10-04T01:28:18;100598.63;;;25.91
61189;BMP280;47054;39.716;2.904;2022-10-04T01:31:03;100591.97;;;25.92
61189;BMP280;47054;39.716;2.904;2022-10-04T01:33:47;100588.50;;;25.92
61189;BMP280;47054;39.716;2.904;2022-10-04T01:36:32;100584.59;;;25.93
61189;BMP280;47054;39.716;2.904;2022-10-04T01:39:17;100587.31;;;25.93
61189;BMP280;47054;39.716;2.904;2022-10-04T01:44:52;100571.47;;;25.91
61189;BMP280;47054;39.716;2.904;2022-10-04T01:47:55;100574.94;;;25.92
61189;BMP280;47054;39.716;2.904;2022-10-04T01:50:50;100572.22;;;25.92
61189;BMP280;47054;39.716;2.904;2022-10-04T01:53:44;100562.53;;;25.91
61189;BMP280;47054;39.716;2.904;2022-10-04T01:56:31;100564.06;;;25.92
61189;BMP280;47054;39.716;2.904;2022-10-04T01:59:21;100557.09;;;25.91
61189;BMP280;47054;39.716;2.904;2022-10-04T02:02:14;100562.53;;;25.91
61189;BMP280;47054;39.716;2.904;2022-10-04T02:05:02;100561.34;;;25.92
61189;BMP280;47054;39.716;2.904;2022-10-04T02:07:48;100560.59;;;25.91
61189;BMP280;47054;39.716;2.904;2022-10-04T02:10:33;100566.78;;;25.92
61189;BMP280;47054;39.716;2.904;2022-10-04T02:13:22;100556.34;;;25.90
61189;BMP280;47054;39.716;2.904;2022-10-04T02:16:10;100554.38;;;25.91
61189;BMP280;47054;39.716;2.904;2022-10-04T02:18:55;100547.00;;;25.91
61189;BMP280;47054;39.716;2.904;2022-10-04T02:21:39;100546.25;;;25.91
61189;BMP280;47054;39.716;2.904;2022-10-04T02:24:25;100547.41;;;25.90
61189;BMP280;47054;39.716;2.904;2022-10-04T02:27:09;100553.63;;;25.90
61189;BMP280;47054;39.716;2.904;2022-10-04T02:30:05;100549.34;;;25.89
61189;BMP280;47054;39.716;2.904;2022-10-04T02:32:53;100543.53;;;25.91
61189;BMP280;47054;39.716;2.904;2022-10-04T02:35:44;100538.47;;;25.89
61189;BMP280;47054;39.716;2.904;2022-10-04T02:38:31;100532.31;;;25.89
61189;BMP280;47054;39.716;2.904;2022-10-04T02:44:02;100530.34;;;25.89
61189;BMP280;47054;39.716;2.904;2022-10-04T02:46:53;100533.81;;;25.90
61189;BMP280;47054;39.716;2.904;2022-10-04T02:52:30;100533.06;;;25.89
61189;BMP280;47054;39.716;2.904;2022-10-04T02:55:19;100532.31;;;25.89
61189;BMP280;47054;39.716;2.904;2022-10-04T02:58:07;100524.91;;;25.89
61189;BMP280;47054;39.716;2.904;2022-10-04T03:00:57;100534.25;;;25.88
61189;BMP280;47054;39.716;2.904;2022-10-04T03:03:43;100534.25;;;25.88
61189;BMP280;47054;39.716;2.904;2022-10-04T03:06:29;100523.38;;;25.88
61189;BMP280;47054;39.716;2.904;2022-10-04T03:09:15;100520.66;;;25.88
61189;BMP280;47054;39.716;2.904;2022-10-04T03:12:00;100519.91;;;25.88
61189;BMP280;47054;39.716;2.904;2022-10-04T03:14:46;100517.94;;;25.88
61189;BMP280;47054;39.716;2.904;2022-10-04T03:17:30;100523.38;;;25.88
61189;BMP280;47054;39.716;2.904;2022-10-04T03:20:15;100511.78;;;25.88
61189;BMP280;47054;39.716;2.904;2022-10-04T03:23:04;100511.78;;;25.88
61189;BMP280;47054;39.716;2.904;2022-10-04T03:25:51;100511.78;;;25.88
61189;BMP280;47054;39.716;2.904;2022-10-04T03:28:36;100506.34;;;25.88
61189;BMP280;47054;39.716;2.904;2022-10-04T03:31:21;100502.06;;;25.87
61189;BMP280;47054;39.716;2.904;2022-10-04T03:34:11;100504.78;;;25.87
61189;BMP280;47054;39.716;2.904;2022-10-04T03:36:56;100500.91;;;25.88
61189;BMP280;47054;39.716;2.904;2022-10-04T03:39:43;100503.63;;;25.88
61189;BMP280;47054;39.716;2.904;2022-10-04T03:42:29;100500.13;;;25.87
61189;BMP280;47054;39.716;2.904;2022-10-04T03:45:14;100504.00;;;25.86
61189;BMP280;47054;39.716;2.904;2022-10-04T03:48:02;100506.72;;;25.86
61189;BMP280;47054;39.716;2.904;2022-10-04T03:50:48;100508.66;;;25.86
61189;BMP280;47054;39.716;2.904;2022-10-04T03:53:34;100511.38;;;25.86
61189;BMP280;47054;39.716;2.904;2022-10-04T03:56:23;100518.78;;;25.85
61189;BMP280;47054;39.716;2.904;2022-10-04T03:59:09;100533.13;;;25.86
61189;BMP280;47054;39.716;2.904;2022-10-04T04:04:46;100529.66;;;25.85
61189;BMP280;47054;39.716;2.904;2022-10-04T04:07:40;100544.00;;;25.86
61189;BMP280;47054;39.716;2.904;2022-10-04T04:10:27;100556.81;;;25.85
61189;BMP280;47054;39.716;2.904;2022-10-04T04:15:59;100564.97;;;25.85
61189;BMP280;47054;39.716;2.904;2022-10-04T04:18:44;100562.25;;;25.85
61189;BMP280;47054;39.716;2.904;2022-10-04T04:21:29;100573.88;;;25.86
61189;BMP280;47054;39.716;2.904;2022-10-04T04:24:17;100578.56;;;25.85
61189;BMP280;47054;39.716;2.904;2022-10-04T04:27:07;100577.78;;;25.85
61189;BMP280;47054;39.716;2.904;2022-10-04T04:29:53;100579.75;;;25.84
61189;BMP280;47054;39.716;2.904;2022-10-04T04:32:42;100590.63;;;25.84
61189;BMP280;47054;39.716;2.904;2022-10-04T04:35:30;100587.91;;;25.84
61189;BMP280;47054;39.716;2.904;2022-10-04T04:38:22;100593.34;;;25.84
61189;BMP280;47054;39.716;2.904;2022-10-04T04:41:08;100590.63;;;25.84
61189;BMP280;47054;39.716;2.904;2022-10-04T04:43:53;100595.28;;;25.84
61189;BMP280;47054;39.716;2.904;2022-10-04T04:46:38;100602.66;;;25.83
61189;BMP280;47054;39.716;2.904;2022-10-04T04:49:23;100609.66;;;25.84
61189;BMP280;47054;39.716;2.904;2022-10-04T04:52:12;100616.25;;;25.83
61189;BMP280;47054;39.716;2.904;2022-10-04T04:54:59;100620.91;;;25.83
61189;BMP280;47054;39.716;2.904;2022-10-04T04:57:45;100618.19;;;25.83
61189;BMP280;47054;39.716;2.904;2022-10-04T05:00:31;100627.09;;;25.83
61189;BMP280;47054;39.716;2.904;2022-10-04T05:03:17;100625.59;;;25.82
61189;BMP280;47054;39.716;2.904;2022-10-04T05:06:02;100631.78;;;25.83
61189;BMP280;47054;39.716;2.904;2022-10-04T05:08:48;100638.75;;;25.84
61189;BMP280;47054;39.716;2.904;2022-10-04T05:11:34;100634.47;;;25.83
61189;BMP280;47054;39.716;2.904;2022-10-04T05:14:19;100635.69;;;25.82
61189;BMP280;47054;39.716;2.904;2022-10-04T05:17:03;100631.44;;;25.81
61189;BMP280;47054;39.716;2.904;2022-10-04T05:19:48;100641.13;;;25.82
61189;BMP280;47054;39.716;2.904;2022-10-04T05:22:33;100644.59;;;25.82
61189;BMP280;47054;39.716;2.904;2022-10-04T05:25:24;100632.19;;;25.81
61189;BMP280;47054;39.716;2.904;2022-10-04T05:28:10;100634.16;;;25.81
61189;BMP280;47054;39.716;2.904;2022-10-04T05:31:11;100638.81;;;25.80
61189;BMP280;47054;39.716;2.904;2022-10-04T05:34:01;100638.81;;;25.80
61189;BMP280;47054;39.716;2.904;2022-10-04T05:42:30;100640.75;;;25.80
61189;BMP280;47054;39.716;2.904;2022-10-04T05:45:19;100642.69;;;25.79
61189;BMP280;47054;39.716;2.904;2022-10-04T05:48:05;100620.47;;;25.65
61189;BMP280;47054;39.716;2.904;2022-10-04T05:50:51;100647.38;;;25.79
61189;BMP280;47054;39.716;2.904;2022-10-04T05:53:36;100647.38;;;25.79
61189;BMP280;47054;39.716;2.904;2022-10-04T05:56:26;100648.13;;;25.79
61189;BMP280;47054;39.716;2.904;2022-10-04T06:04:55;100633.03;;;25.78
61189;BMP280;47054;39.716;2.904;2022-10-04T06:22:15;100647.81;;;25.77
61189;BMP280;47054;39.716;2.904;2022-10-04T06:27:48;100651.69;;;25.76
61189;BMP280;47054;39.716;2.904;2022-10-04T06:30:39;100648.19;;;25.76
61189;BMP280;47054;39.716;2.904;2022-10-04T06:45:10;100622.22;;;25.75
61189;BMP280;47054;39.716;2.904;2022-10-04T06:48:21;100609.84;;;25.74
61189;BMP280;47054;39.716;2.904;2022-10-04T07:00:34;100628.84;;;25.74
61189;BMP280;47054;39.716;2.904;2022-10-04T07:03:11;100626.13;;;25.74
61189;BMP280;47054;39.716;2.904;2022-10-04T07:05:57;100638.94;;;25.73
61189;BMP280;47054;39.716;2.904;2022-10-04T07:08:46;100646.31;;;25.73
61189;BMP280;47054;39.716;2.904;2022-10-04T07:14:32;100651.75;;;25.73
61189;BMP280;47054;39.716;2.904;2022-10-04T07:17:26;100657.19;;;25.73
61189;BMP280;47054;39.716;2.904;2022-10-04T07:20:20;100646.31;;;25.73
61189;BMP280;47054;39.716;2.904;2022-10-04T07:23:07;100650.22;;;25.72
61189;BMP280;47054;39.716;2.904;2022-10-04T07:25:58;100642.22;;;25.65
61189;BMP280;47054;39.716;2.904;2022-10-04T07:28:45;100658.38;;;25.72
61189;BMP280;47054;39.716;2.904;2022-10-04T07:32:00;100661.09;;;25.72
61189;BMP280;47054;39.716;2.904;2022-10-04T07:40:37;100665.00;;;25.71
61189;BMP280;47054;39.716;2.904;2022-10-04T07:43:26;100670.44;;;25.71
61189;BMP280;47054;39.716;2.904;2022-10-04T07:49:25;100664.22;;;25.70
61189;BMP280;47054;39.716;2.904;2022-10-04T07:55:06;100675.09;;;25.70
61189;BMP280;47054;39.716;2.904;2022-10-04T08:00:53;100675.50;;;25.69
61189;BMP280;47054;39.716;2.904;2022-10-04T08:07:02;100681.69;;;25.69
61189;BMP280;47054;39.716;2.904;2022-10-04T08:09:51;100674.75;;;25.68
61189;BMP280;47054;39.716;2.904;2022-10-04T08:15:37;100673.53;;;25.69
61189;BMP280;47054;39.716;2.904;2022-10-04T08:21:08;100669.31;;;25.68
61189;BMP280;47054;39.716;2.904;2022-10-04T08:44:11;100674.38;;;25.66
61189;BMP280;47054;39.716;2.904;2022-10-04T08:47:08;100674.38;;;25.66
61189;BMP280;47054;39.716;2.904;2022-10-04T08:59:04;100665.06;;;25.67
61189;BMP280;47054;39.716;2.904;2022-10-04T09:14:04;100680.22;;;25.65
61189;BMP280;47054;39.716;2.904;2022-10-04T09:16:56;100678.28;;;25.65
61189;BMP280;47054;39.716;2.904;2022-10-04T09:19:55;100696.53;;;25.65
61189;BMP280;47054;39.716;2.904;2022-10-04T09:22:46;100701.97;;;25.65
61189;BMP280;47054;39.716;2.904;2022-10-04T10:08:34;100727.59;;;25.64
61189;BMP280;47054;39.716;2.904;2022-10-04T10:20:48;100731.47;;;25.63
61189;BMP280;47054;39.716;2.904;2022-10-04T10:43:53;100698.13;;;25.62
61189;BMP280;47054;39.716;2.904;2022-10-04T10:47:06;100678.19;;;25.49
61189;BMP280;47054;39.716;2.904;2022-10-04T11:07:37;100708.59;;;25.64
61189;BMP280;47054;39.716;2.904;2022-10-04T11:28:06;100728.34;;;25.64
61189;BMP280;47054;39.716;2.904;2022-10-04T11:36:45;100744.63;;;25.64
61189;BMP280;47054;39.716;2.904;2022-10-04T11:51:01;100763.25;;;25.66
61189;BMP280;47054;39.716;2.904;2022-10-04T12:14:08;100760.53;;;25.66
61189;BMP280;47054;39.716;2.904;2022-10-04T12:33:51;100729.84;;;25.69
61189;BMP280;47054;39.716;2.904;2022-10-04T12:36:50;100731.00;;;25.68
61189;BMP280;47054;39.716;2.904;2022-10-04T13:00:21;100712.34;;;25.70
61189;BMP280;47054;39.716;2.904;2022-10-04T13:09:22;100704.97;;;25.70
61189;BMP280;47054;39.716;2.904;2022-10-04T13:15:04;100686.72;;;25.71
61189;BMP280;47054;39.716;2.904;2022-10-04T13:18:03;100678.59;;;25.71
61189;BMP280;47054;39.716;2.904;2022-10-04T13:21:02;100684.75;;;25.71
61189;BMP280;47054;39.716;2.904;2022-10-04T13:29:34;100687.06;;;25.73
61189;BMP280;47054;39.716;2.904;2022-10-04T13:32:24;100680.88;;;25.72
61189;BMP280;47054;39.716;2.904;2022-10-04T13:35:17;100687.06;;;25.73
61189;BMP280;47054;39.716;2.904;2022-10-04T13:53:22;100697.53;;;25.74
61189;BMP280;47054;39.716;2.904;2022-10-04T13:59:26;100694.81;;;25.74
61189;BMP280;47054;39.716;2.904;2022-10-04T14:02:35;100688.19;;;25.75
61189;BMP280;47054;39.716;2.904;2022-10-04T14:08:33;100693.63;;;25.75
61189;BMP280;47054;39.716;2.904;2022-10-04T14:37:02;100688.13;;;25.79
61189;BMP280;47054;39.716;2.904;2022-10-04T14:52:32;100687.28;;;25.82
61189;BMP280;47054;39.716;2.904;2022-10-04T15:01:14;100693.50;;;25.82
61189;BMP280;47054;39.716;2.904;2022-10-04T15:10:29;100693.09;;;25.84
61189;BMP280;47054;39.716;2.904;2022-10-04T15:16:18;100685.25;;;25.86
61189;BMP280;47054;39.716;2.904;2022-10-04T15:19:09;100685.25;;;25.86
61189;BMP280;47054;39.716;2.904;2022-10-04T15:22:08;100686.03;;;25.86
61189;BMP280;47054;39.716;2.904;2022-10-04T15:24:54;100689.53;;;25.87
61189;BMP280;47054;39.716;2.904;2022-10-04T15:27:46;100674.00;;;25.87
61189;BMP280;47054;39.716;2.904;2022-10-04T15:30:35;100679.44;;;25.87
61189;BMP280;47054;39.716;2.904;2022-10-04T15:39:45;100689.88;;;25.89
61189;BMP280;47054;39.716;2.904;2022-10-04T15:42:37;100682.47;;;25.89
61189;BMP280;47054;39.716;2.904;2022-10-04T15:45:34;100679.75;;;25.89
61189;BMP280;47054;39.716;2.904;2022-10-04T16:00:36;100680.91;;;25.92
61189;BMP280;47054;39.716;2.904;2022-10-04T16:03:37;100689.78;;;25.92
61189;BMP280;47054;39.716;2.904;2022-10-04T16:09:18;100700.28;;;25.94
61189;BMP280;47054;39.716;2.904;2022-10-04T16:14:59;100708.00;;;25.95
61189;BMP280;47054;39.716;2.904;2022-10-04T16:20:40;100706.03;;;25.96
61189;BMP280;47054;39.716;2.904;2022-10-04T16:23:35;100716.16;;;25.95
61189;BMP280;47054;39.716;2.904;2022-10-04T16:37:38;100712.63;;;25.98
61189;BMP280;47054;39.716;2.904;2022-10-04T16:43:12;100717.63;;;26.00
61189;BMP280;47054;39.716;2.904;2022-10-04T16:48:52;100723.44;;;26.02
61189;BMP280;47054;39.716;2.904;2022-10-04T16:54:47;100720.72;;;26.02
61189;BMP280;47054;39.716;2.904;2022-10-04T16:57:41;100713.28;;;26.02
61189;BMP280;47054;39.716;2.904;2022-10-04T17:03:52;100713.66;;;26.04
61189;BMP280;47054;39.716;2.904;2022-10-04T17:15:07;100715.16;;;26.05
61189;BMP280;47054;39.716;2.904;2022-10-04T17:17:55;100711.28;;;26.06
61189;BMP280;47054;39.716;2.904;2022-10-04T17:20:52;100714.78;;;26.07
61189;BMP280;47054;39.716;2.904;2022-10-04T17:29:25;100720.53;;;26.09
61189;BMP280;47054;39.716;2.904;2022-10-04T17:35:30;100730.25;;;26.10
61189;BMP280;47054;39.716;2.904;2022-10-04T17:44:38;100733.31;;;26.12
61189;BMP280;47054;39.716;2.904;2022-10-04T17:50:44;100733.31;;;26.12
61189;BMP280;47054;39.716;2.904;2022-10-04T17:53:53;100741.06;;;26.13
61189;BMP280;47054;39.716;2.904;2022-10-04T17:59:50;100750.75;;;26.14
61189;BMP280;47054;39.716;2.904;2022-10-04T18:05:22;100751.53;;;26.15
61189;BMP280;47054;39.716;2.904;2022-10-04T18:11:02;100747.59;;;26.16
61189;BMP280;47054;39.716;2.904;2022-10-04T18:13:59;100742.94;;;26.16
61189;BMP280;47054;39.716;2.904;2022-10-04T18:16:53;100749.91;;;26.17
61189;BMP280;47054;39.716;2.904;2022-10-04T18:19:41;100753.41;;;26.18
61189;BMP280;47054;39.716;2.904;2022-10-04T18:22:26;100754.94;;;26.19
61189;BMP280;47054;39.716;2.904;2022-10-04T18:25:16;100763.09;;;26.19
61189;BMP280;47054;39.716;2.904;2022-10-04T18:36:44;100770.81;;;26.20
61189;BMP280;47054;39.716;2.904;2022-10-04T18:39:31;100777.81;;;26.21
61189;BMP280;47054;39.716;2.904;2022-10-04T18:42:21;100780.53;;;26.21
61189;BMP280;47054;39.716;2.904;2022-10-04T18:45:16;100781.28;;;26.22
61189;BMP280;47054;39.716;2.904;2022-10-04T18:48:14;100789.44;;;26.22
61189;BMP280;47054;39.716;2.904;2022-10-04T18:50:59;100795.66;;;26.22
61189;BMP280;47054;39.716;2.904;2022-10-04T18:54:20;100797.16;;;26.23
61189;BMP280;47054;39.716;2.904;2022-10-04T18:57:27;100811.97;;;26.22
61189;BMP280;47054;39.716;2.904;2022-10-04T19:00:14;100804.56;;;26.23
61189;BMP280;47054;39.716;2.904;2022-10-04T19:03:23;100808.81;;;26.24
61189;BMP280;47054;39.716;2.904;2022-10-04T19:06:18;100806.09;;;26.24
61189;BMP280;47054;39.716;2.904;2022-10-04T19:11:57;100822.00;;;26.25
61189;BMP280;47054;39.716;2.904;2022-10-04T19:14:46;100819.28;;;26.25
61189;BMP280;47054;39.716;2.904;2022-10-04T19:17:52;100823.50;;;26.26
61189;BMP280;47054;39.716;2.904;2022-10-04T19:23:26;100831.66;;;26.26
61189;BMP280;47054;39.716;2.904;2022-10-04T19:26:16;100837.09;;;26.26
61189;BMP280;47054;39.716;2.904;2022-10-04T19:32:10;100843.31;;;26.27
61189;BMP280;47054;39.716;2.904;2022-10-04T19:43:58;100849.13;;;26.29
61189;BMP280;47054;39.716;2.904;2022-10-04T19:58:34;100865.78;;;26.31
61189;BMP280;47054;39.716;2.904;2022-10-04T20:01:20;100857.63;;;26.31
61189;BMP280;47054;39.716;2.904;2022-10-04T20:04:12;100860.34;;;26.31
61189;BMP280;47054;39.716;2.904;2022-10-04T20:07:19;100860.34;;;26.31
61189;BMP280;47054;39.716;2.904;2022-10-04T20:13:26;100874.69;;;26.32
61189;BMP280;47054;39.716;2.904;2022-10-04T20:16:11;100874.69;;;26.32
61189;BMP280;47054;39.716;2.904;2022-10-04T20:18:56;100879.38;;;26.31
61189;BMP280;47054;39.716;2.904;2022-10-04T20:21:42;100885.16;;;26.33
61189;BMP280;47054;39.716;2.904;2022-10-04T20:30:16;100882.44;;;26.33
61189;BMP280;47054;39.716;2.904;2022-10-04T20:33:06;100882.44;;;26.33
61189;BMP280;47054;39.716;2.904;2022-10-04T20:36:04;100895.28;;;26.33
61189;BMP280;47054;39.716;2.904;2022-10-04T20:44:40;100896.81;;;26.34
61189;BMP280;47054;39.716;2.904;2022-10-04T20:56:09;100904.97;;;26.34
61189;BMP280;47054;39.716;2.904;2022-10-04T20:58:58;100913.13;;;26.34
61189;BMP280;47054;39.716;2.904;2022-10-04T21:01:59;100910.41;;;26.34
61189;BMP280;47054;39.716;2.904;2022-10-04T21:04:43;100909.22;;;26.35
61189;BMP280;47054;39.716;2.904;2022-10-04T21:07:30;100910.41;;;26.34
61189;BMP280;47054;39.716;2.904;2022-10-04T21:10:16;100912.72;;;26.35
61189;BMP280;47054;39.716;2.904;2022-10-04T21:13:00;100912.72;;;26.35
61189;BMP280;47054;39.716;2.904;2022-10-04T21:15:54;100915.44;;;26.35
61189;BMP280;47054;39.716;2.904;2022-10-04T21:18:40;100913.47;;;26.36
61189;BMP280;47054;39.716;2.904;2022-10-04T21:27:24;100924.34;;;26.36
61189;BMP280;47054;39.716;2.904;2022-10-04T21:30:13;100921.66;;;26.36
61189;BMP280;47054;39.716;2.904;2022-10-04T21:32:58;100924.34;;;26.36
61189;BMP280;47054;39.716;2.904;2022-10-04T21:35:43;100927.09;;;26.36
61189;BMP280;47054;39.716;2.904;2022-10-04T21:38:27;100934.03;;;26.37
61189;BMP280;47054;39.716;2.904;2022-10-04T21:41:14;100927.84;;;26.36
61189;BMP280;47054;39.716;2.904;2022-10-04T21:44:02;100936.75;;;26.37
61189;BMP280;47054;39.716;2.904;2022-10-04T21:46:46;100944.19;;;26.36
61189;BMP280;47054;39.716;2.904;2022-10-04T21:49:31;100938.72;;;26.36
61189;BMP280;47054;39.716;2.904;2022-10-04T21:52:16;100930.56;;;26.36
61189;BMP280;47054;39.716;2.904;2022-10-04T21:55:01;100925.13;;;26.36
61189;BMP280;47054;39.716;2.904;2022-10-04T21:57:46;100934.81;;;26.37
61189;BMP280;47054;39.716;2.904;2022-10-04T22:00:33;100935.25;;;26.36
61189;BMP280;47054;39.716;2.904;2022-10-04T22:03:18;100933.28;;;26.36
61189;BMP280;47054;39.716;2.904;2022-10-04T22:06:05;100933.28;;;26.36
61189;BMP280;47054;39.716;2.904;2022-10-04T22:08:50;100933.28;;;26.36
61189;BMP280;47054;39.716;2.904;2022-10-04T22:11:34;100926.66;;;26.37
61189;BMP280;47054;39.716;2.904;2022-10-04T22:14:20;100928.59;;;26.37
61189;BMP280;47054;39.716;2.904;2022-10-04T22:17:05;100938.72;;;26.36
61189;BMP280;47054;39.716;2.904;2022-10-04T22:19:49;100941.47;;;26.36
61189;BMP280;47054;39.716;2.904;2022-10-04T22:22:37;100938.72;;;26.36
61189;BMP280;47054;39.716;2.904;2022-10-04T22:25:22;100944.19;;;26.36
61189;BMP280;47054;39.716;2.904;2022-10-04T22:31:11;100943.41;;;26.36
61189;BMP280;47054;39.716;2.904;2022-10-04T22:33:56;100951.56;;;26.36
61189;BMP280;47054;39.716;2.904;2022-10-04T22:36:43;100948.84;;;26.36
61189;BMP280;47054;39.716;2.904;2022-10-04T22:39:27;100946.13;;;26.36
61189;BMP280;47054;39.716;2.904;2022-10-04T22:42:15;100944.19;;;26.36
61189;BMP280;47054;39.716;2.904;2022-10-04T22:45:00;100937.19;;;26.35
61189;BMP280;47054;39.716;2.904;2022-10-04T22:47:45;100938.72;;;26.36
61189;BMP280;47054;39.716;2.904;2022-10-04T22:50:30;100935.25;;;26.36
61189;BMP280;47054;39.716;2.904;2022-10-04T22:53:16;100948.84;;;26.36
61189;BMP280;47054;39.716;2.904;2022-10-04T22:56:03;100933.28;;;26.36
61189;BMP280;47054;39.716;2.904;2022-10-04T22:58:47;100927.84;;;26.36
61189;BMP280;47054;39.716;2.904;2022-10-04T23:01:32;100933.28;;;26.36
61189;BMP280;47054;39.716;2.904;2022-10-04T23:04:21;100936.03;;;26.36
61189;BMP280;47054;39.716;2.904;2022-10-04T23:07:06;100930.97;;;26.35
61189;BMP280;47054;39.716;2.904;2022-10-04T23:09:51;100922.06;;;26.34
61189;BMP280;47054;39.716;2.904;2022-10-04T23:12:35;100926.31;;;26.35
61189;BMP280;47054;39.716;2.904;2022-10-04T23:15:19;100920.88;;;26.35
61189;BMP280;47054;39.716;2.904;2022-10-04T23:18:10;100918.16;;;26.35
61189;BMP280;47054;39.716;2.904;2022-10-04T23:20:58;100925.13;;;26.36
61189;BMP280;47054;39.716;2.904;2022-10-04T23:23:42;100925.53;;;26.35
61189;BMP280;47054;39.716;2.904;2022-10-04T23:39:07;100916.25;;;26.32
61189;BMP280;47054;39.716;2.904;2022-10-04T23:41:54;100915.06;;;26.33
61189;BMP280;47054;39.716;2.904;2022-10-04T23:44:39;100912.34;;;26.33
61189;BMP280;47054;39.716;2.904;2022-10-04T23:47:30;100905.75;;;26.34
61189;BMP280;47054;39.716;2.904;2022-10-04T23:50:17;100906.91;;;26.33
61189;BMP280;47054;39.716;2.904;2022-10-04T23:53:03;100904.19;;;26.33
61189;BMP280;47054;39.716;2.904;2022-10-04T23:55:49;100904.59;;;26.32
61189;BMP280;47054;39.716;2.904;2022-10-04T23:58:37;100901.47;;;26.33
